Warner, South Dakota
Current Conditions -  °F | °C
As of 6:53 AM on Wednesday 22 Oct 2014 (Local Time) from KABR Reporting Station
Clear Clear  
Wind Chill: 57°   Ceiling: Unl
Heat Index: 57°   Visibility: 10mi
Dew Point: 43°   Wind: 16mph
Humidity: 59%   Direction: 180°S
Pressure: 29.83"   Gusts: 29mph
Location:  45.33°N, 98.5°W
Report Text: KABR 221153Z AUTO 18014G25KT 10SM CLR 14/06 A2983 RMK AO2 PK WND 17028/1102 SLP099 T01390061 10172 20139 53004
Loading
Personal Weather Stations






























Interactive Weather Map
Tropical Storm Tracking
New forecast layout! Learn more

10-Day Weather Forecast

Advertisements
Track Severe Weather on mobile